Kezdőlap
METAR-TAF:

METAR-TAF

Repülőterek :

Kuantan, Malajzia

földrajzi szélesség: 03-37N, földrajzi hosszúság: 103-13E, magasság: 18 m

Jelenlegi meteorológiai megfigyelések

A jelentés 47 perccel ezelõtt készült, 02:00 UTC
Dél-délnyugati szél 5 kt, délkeleti és nyugat-délnyugati között változik
Hőmérséklet 25°C
Páratartalom 89%
Légköri nyomás 1009 hPa
Látótávolság 10 km, vagy több
Kevés felhő 2500 lábon

METAR: WMKD 220200Z 21005KT 140V240 9999 FEW025 25/23 Q1009 NOSIG

Idő: 10:47 (02:47 UTC)


TAF: hiányzik

Meteorológiai megfigyelések és előrejelzések több, mint 4000 repülőtéren (METAR és TAF jelentéseket).

A térképen piros és sárga pontok jelzik az elérhető meteorológiai állomásokat.

Mozgassa az egeret a pont fölött, hogy megjelenjen az állomás neve.

Azután kattintson az időjárási megfigyelések és előrejelzések megtekintéséhez.

A térkép megváltoztatása: kattintson a fekete keresztel jelölt zöld gombra ráközelítéshez, a vonallal jelölt zöld gombra távolításhoz, vagy a zöld nyilakra a szomszédos térképek eléréséhez.


METAR-TAF: